Time;durP1;ratioP1;P1;durP2;ratioP2;P2;SDS_P1;SDS_P2;PMS_P1;PMS_P2;Temp;Humidity;BMP_temperature;BMP_pressure;BME280_temperature;BME280_humidity;BME280_pressure;Samples;Min_cycle;Max_cycle;Signal;HPM_P1;HPM_P2
2022/01/01 00:04:06;;;;;;;6.53;2.40;;;7.60;99.90;;;;;;10463063;28;20220;-83
2022/01/01 00:09:28;;;;;;;6.47;2.60;;;7.60;99.90;;;;;;10462608;28;20196;-81
2022/01/01 00:14:50;;;;;;;3.70;2.43;;;7.50;99.90;;;;;;10462572;28;20390;-82
2022/01/01 00:20:13;;;;;;;2.57;2.17;;;7.50;99.90;;;;;;10466411;28;20196;-82
2022/01/01 00:25:36;;;;;;;3.80;2.43;;;7.50;99.90;;;;;;10470103;28;20285;-82
2022/01/01 00:30:58;;;;;;;2.50;1.90;;;7.60;99.90;;;;;;10468816;28;20514;-83
2022/01/01 00:36:20;;;;;;;3.13;1.97;;;7.50;99.90;;;;;;10469318;28;20408;-82
2022/01/01 00:41:43;;;;;;;3.27;2.20;;;7.50;99.90;;;;;;10441540;28;20205;-82
2022/01/01 00:47:04;;;;;;;5.63;2.73;;;7.50;99.90;;;;;;10414064;28;20235;-83
2022/01/01 00:52:26;;;;;;;3.50;2.37;;;7.50;99.90;;;;;;10454301;28;20235;-82
2022/01/01 00:57:48;;;;;;;2.50;2.30;;;7.50;99.90;;;;;;10413693;28;20216;-82
2022/01/01 01:03:12;;;;;;;3.03;2.60;;;7.50;99.90;;;;;;10427336;28;20236;-81
2022/01/01 01:08:34;;;;;;;5.10;2.47;;;7.50;99.90;;;;;;10440934;28;20526;-83
2022/01/01 01:14:06;;;;;;;3.27;2.77;;;7.50;99.90;;;;;;10426765;28;20490;-83
2022/01/01 01:19:28;;;;;;;3.77;2.47;;;7.50;99.90;;;;;;10440547;28;20239;-82
2022/01/01 01:24:53;;;;;;;4.27;3.00;;;7.50;99.90;;;;;;10440104;28;20461;-82
2022/01/01 01:30:16;;;;;;;2.93;2.40;;;7.40;99.90;;;;;;10445678;28;20487;-82
2022/01/01 01:35:38;;;;;;;3.70;2.63;;;7.40;99.90;;;;;;10440158;28;20192;-83
2022/01/01 01:41:00;;;;;;;4.07;2.63;;;7.40;99.90;;;;;;10426500;28;20197;-83
2022/01/01 01:46:22;;;;;;;2.77;2.30;;;7.30;99.90;;;;;;10439688;28;20534;-83
2022/01/01 01:51:44;;;;;;;3.37;2.47;;;7.30;99.90;;;;;;10458959;28;20232;-82
2022/01/01 01:57:06;;;;;;;5.13;2.97;;;7.30;99.90;;;;;;10465630;28;20485;-83
2022/01/01 02:02:28;;;;;;;3.27;2.60;;;7.30;99.90;;;;;;10432337;28;20199;-82
2022/01/01 02:07:52;;;;;;;3.37;2.40;;;7.30;99.90;;;;;;10438781;28;20206;-82
2022/01/01 02:13:22;;;;;;;3.50;2.17;;;7.30;99.90;;;;;;10438374;28;20448;-83
2022/01/01 02:18:44;;;;;;;3.53;2.40;;;7.30;99.90;;;;;;10424286;28;20491;-83
2022/01/01 02:24:06;;;;;;;4.77;2.00;;;7.30;99.90;;;;;;10437717;28;20469;-83
2022/01/01 02:29:28;;;;;;;2.43;2.03;;;7.20;99.90;;;;;;10454436;28;20195;-83
2022/01/01 02:34:50;;;;;;;2.67;2.10;;;7.30;99.90;;;;;;10478809;28;20226;-83
2022/01/01 02:40:15;;;;;;;3.40;1.70;;;7.20;99.90;;;;;;10431846;28;20487;-83
2022/01/01 02:45:37;;;;;;;3.17;2.00;;;7.20;99.90;;;;;;10423348;28;20233;-82
2022/01/01 02:50:59;;;;;;;3.37;2.07;;;7.20;99.90;;;;;;10423593;28;20314;-82
2022/01/01 02:56:22;;;;;;;4.27;2.17;;;7.20;99.90;;;;;;10449649;28;20231;-82
2022/01/01 03:01:44;;;;;;;2.50;2.10;;;7.20;99.90;;;;;;10425861;28;20202;-82
2022/01/01 03:07:07;;;;;;;1.90;1.40;;;7.20;99.90;;;;;;10422087;28;20243;-82
2022/01/01 03:12:29;;;;;;;2.57;1.90;;;7.20;99.90;;;;;;10453015;28;20247;-82
2022/01/01 03:17:51;;;;;;;2.30;1.73;;;7.20;99.90;;;;;;10422569;28;20278;-83
2022/01/01 03:23:13;;;;;;;2.10;1.40;;;7.20;99.90;;;;;;10437776;28;20245;-82
2022/01/01 03:28:35;;;;;;;1.93;1.20;;;7.20;99.90;;;;;;10449772;28;20514;-82
2022/01/01 03:33:58;;;;;;;3.87;1.40;;;7.10;99.90;;;;;;10463020;28;20203;-82
2022/01/01 03:39:22;;;;;;;1.43;1.00;;;7.00;99.90;;;;;;10463211;28;20199;-82
2022/01/01 03:44:43;;;;;;;2.17;0.90;;;7.00;99.90;;;;;;10463133;28;20230;-82
2022/01/01 03:50:06;;;;;;;1.67;1.17;;;6.90;99.90;;;;;;10441875;28;20243;-83
2022/01/01 03:55:29;;;;;;;2.17;1.20;;;6.90;99.90;;;;;;10445735;28;20218;-82
2022/01/01 04:00:51;;;;;;;2.33;1.30;;;6.90;99.90;;;;;;10471531;28;20191;-82
2022/01/01 04:06:14;;;;;;;3.00;1.20;;;6.90;99.90;;;;;;10484269;28;20296;-82
2022/01/01 04:11:37;;;;;;;1.37;1.20;;;6.80;99.90;;;;;;10484849;28;20262;-83
2022/01/01 04:16:59;;;;;;;2.30;1.40;;;6.80;99.90;;;;;;10470328;28;20505;-82
2022/01/01 04:22:22;;;;;;;3.57;1.60;;;6.80;99.90;;;;;;10500673;28;20200;-83
2022/01/01 04:27:44;;;;;;;6.03;1.63;;;6.80;99.90;;;;;;10483677;28;20195;-82
2022/01/01 04:33:06;;;;;;;2.30;1.90;;;6.80;99.90;;;;;;10432684;28;20208;-83
2022/01/01 04:38:40;;;;;;;2.97;2.00;;;6.70;99.90;;;;;;10428421;28;20238;-83
2022/01/01 04:44:02;;;;;;;2.50;1.87;;;6.70;99.90;;;;;;10441942;28;20529;-83
2022/01/01 04:49:24;;;;;;;1.90;1.40;;;6.70;99.90;;;;;;10456590;28;20230;-83
2022/01/01 04:54:46;;;;;;;2.13;1.40;;;6.70;99.90;;;;;;10468812;28;20203;-82
2022/01/01 05:00:09;;;;;;;1.50;1.40;;;6.70;99.90;;;;;;10469269;28;20195;-82
2022/01/01 05:05:31;;;;;;;2.57;1.57;;;6.70;99.90;;;;;;10468306;28;20230;-82
2022/01/01 05:10:53;;;;;;;4.00;1.30;;;6.70;99.90;;;;;;10468349;28;20203;-82
2022/01/01 05:16:18;;;;;;;2.70;1.30;;;6.60;99.90;;;;;;10468123;28;20202;-82
2022/01/01 05:21:41;;;;;;;4.37;1.80;;;6.70;99.90;;;;;;10468001;28;20391;-83
2022/01/01 05:27:03;;;;;;;2.17;1.40;;;6.60;99.90;;;;;;10440342;28;20254;-83
2022/01/01 05:32:25;;;;;;;3.73;1.57;;;6.60;99.90;;;;;;10457707;28;20226;-82
2022/01/01 05:37:47;;;;;;;1.67;1.43;;;6.60;99.90;;;;;;10467289;28;20206;-83
2022/01/01 05:43:13;;;;;;;1.37;1.20;;;6.50;99.90;;;;;;10466983;28;20207;-83
2022/01/01 05:48:38;;;;;;;5.30;1.30;;;6.50;99.90;;;;;;10480548;28;20393;-83
2022/01/01 05:53:59;;;;;;;1.93;1.47;;;6.50;99.90;;;;;;10466781;28;20214;-82
2022/01/01 05:59:21;;;;;;;2.03;1.30;;;6.50;99.90;;;;;;10466304;28;20234;-81
2022/01/01 06:04:43;;;;;;;2.83;1.17;;;6.50;99.90;;;;;;10466219;28;20413;-81
2022/01/01 06:10:06;;;;;;;1.73;1.43;;;6.50;99.90;;;;;;10466034;28;20453;-81
2022/01/01 06:15:28;;;;;;;1.90;1.17;;;6.50;99.90;;;;;;10465219;28;20199;-81
2022/01/01 06:20:50;;;;;;;2.63;1.27;;;6.40;99.90;;;;;;10465501;28;20397;-80
2022/01/01 06:26:12;;;;;;;3.40;1.33;;;6.40;99.90;;;;;;10451650;28;20254;-79
2022/01/01 06:31:34;;;;;;;3.20;1.50;;;6.40;99.90;;;;;;10448195;28;20198;-81
2022/01/01 06:36:56;;;;;;;7.30;2.43;;;6.50;99.90;;;;;;10464512;28;20317;-81
2022/01/01 06:42:18;;;;;;;2.23;1.50;;;6.40;99.90;;;;;;10464125;28;20281;-80
2022/01/01 06:47:40;;;;;;;2.27;1.57;;;6.50;99.90;;;;;;10477950;28;20284;-81
2022/01/01 06:53:02;;;;;;;4.20;2.37;;;6.40;99.90;;;;;;10464017;28;20415;-82
2022/01/01 06:58:26;;;;;;;4.03;2.33;;;6.30;99.90;;;;;;10464309;28;20199;-81
2022/01/01 07:03:48;;;;;;;4.93;2.47;;;6.30;99.90;;;;;;10479057;28;20222;-82
2022/01/01 07:09:12;;;;;;;5.50;2.80;;;6.30;99.90;;;;;;10463687;28;20550;-80
2022/01/01 07:14:34;;;;;;;7.10;2.87;;;6.30;99.90;;;;;;10463344;28;20210;-82
2022/01/01 07:19:56;;;;;;;4.53;2.73;;;6.40;99.90;;;;;;10477836;28;20237;-81
2022/01/01 07:25:19;;;;;;;5.30;3.40;;;6.40;99.90;;;;;;10463106;28;20408;-81
2022/01/01 07:30:41;;;;;;;5.13;3.23;;;6.40;99.90;;;;;;10463296;28;20431;-82
2022/01/01 07:36:04;;;;;;;5.90;3.20;;;6.40;99.90;;;;;;10438777;28;20425;-82
2022/01/01 07:41:27;;;;;;;6.40;4.00;;;6.30;99.90;;;;;;10408346;28;20530;-80
2022/01/01 07:46:50;;;;;;;4.93;3.47;;;6.30;99.90;;;;;;10408015;28;20223;-80
2022/01/01 07:52:12;;;;;;;7.97;3.90;;;6.30;99.90;;;;;;10435591;28;20253;-81
2022/01/01 07:57:34;;;;;;;7.77;4.03;;;6.30;99.90;;;;;;10437907;28;20205;-82
2022/01/01 08:02:56;;;;;;;26.80;13.13;;;6.30;99.90;;;;;;10421567;28;20502;-81
2022/01/01 08:08:18;;;;;;;14.30;6.50;;;6.30;99.90;;;;;;10435162;28;20231;-81
2022/01/01 08:13:40;;;;;;;12.93;6.97;;;6.40;99.90;;;;;;10434878;28;20310;-82
2022/01/01 08:19:02;;;;;;;10.50;6.13;;;6.40;99.90;;;;;;10420914;28;20250;-81
2022/01/01 08:24:25;;;;;;;16.37;8.77;;;6.50;99.90;;;;;;10425503;28;20251;-81
2022/01/01 08:29:48;;;;;;;11.63;8.10;;;6.50;99.90;;;;;;10462049;28;20498;-82
2022/01/01 08:35:10;;;;;;;17.33;9.23;;;6.60;99.90;;;;;;10436065;28;20204;-81
2022/01/01 08:40:33;;;;;;;10.73;7.77;;;6.60;99.90;;;;;;10409756;28;20204;-82
2022/01/01 08:45:55;;;;;;;11.30;7.33;;;6.60;99.90;;;;;;10428299;28;20251;-83
2022/01/01 08:51:19;;;;;;;8.67;5.33;;;6.70;99.90;;;;;;10442053;28;20246;-83
2022/01/01 08:56:43;;;;;;;10.73;5.87;;;6.70;99.90;;;;;;10464117;28;20534;-83
2022/01/01 09:02:04;;;;;;;8.93;5.40;;;6.70;99.90;;;;;;10469170;28;20198;-82
2022/01/01 09:07:29;;;;;;;8.10;5.30;;;6.70;99.90;;;;;;10468367;28;20233;-82
2022/01/01 09:12:51;;;;;;;12.80;7.10;;;6.70;99.90;;;;;;10482261;28;20200;-82
2022/01/01 09:18:13;;;;;;;10.83;7.13;;;6.70;99.90;;;;;;10454567;28;20202;-82
2022/01/01 09:23:35;;;;;;;11.03;6.33;;;6.70;99.90;;;;;;10467534;28;20191;-83
2022/01/01 09:28:57;;;;;;;24.47;12.27;;;6.70;99.90;;;;;;10484702;28;20275;-83
2022/01/01 09:34:18;;;;;;;15.87;8.80;;;6.70;99.90;;;;;;10467657;28;20505;-81
2022/01/01 09:39:40;;;;;;;31.80;14.40;;;6.70;99.90;;;;;;10467121;28;20199;-81
2022/01/01 09:45:06;;;;;;;25.20;12.37;;;6.70;99.90;;;;;;10453535;28;20264;-80
2022/01/01 09:50:30;;;;;;;23.30;12.07;;;6.70;99.90;;;;;;10465573;28;20592;-82
2022/01/01 09:55:53;;;;;;;24.00;11.13;;;6.70;99.90;;;;;;10465929;28;20389;-82
2022/01/01 10:01:15;;;;;;;21.33;11.30;;;6.80;99.90;;;;;;10466532;28;20229;-83
2022/01/01 10:06:38;;;;;;;24.70;11.63;;;6.80;99.90;;;;;;10479930;28;20250;-82
2022/01/01 10:12:01;;;;;;;18.67;11.20;;;6.70;99.90;;;;;;10465864;28;20201;-82
2022/01/01 10:17:24;;;;;;;24.37;12.63;;;6.70;99.90;;;;;;10465773;28;20219;-79
2022/01/01 10:22:50;;;;;;;24.03;12.07;;;6.70;99.90;;;;;;10479091;28;20195;-82
2022/01/01 10:28:12;;;;;;;25.10;12.17;;;6.80;99.90;;;;;;10465463;28;20540;-83
2022/01/01 10:33:34;;;;;;;21.50;12.30;;;6.80;99.90;;;;;;10436169;28;20203;-83
2022/01/01 10:39:07;;;;;;;16.00;9.53;;;6.80;99.90;;;;;;10437654;28;20203;-81
2022/01/01 10:44:36;;;;;;;27.77;11.93;;;6.80;99.90;;;;;;10437442;28;20547;-81
2022/01/01 10:55:33;;;;;;;23.77;13.03;;;6.80;99.90;;;;;;10477999;28;20196;-83
2022/01/01 11:01:06;;;;;;;25.03;12.57;;;6.70;99.90;;;;;;10478151;28;20487;-80
2022/01/01 11:06:33;;;;;;;29.17;15.33;;;6.60;99.90;;;;;;10463623;28;20235;-81
2022/01/01 11:12:02;;;;;;;25.07;11.50;;;6.70;99.90;;;;;;10477421;28;20241;-82
2022/01/01 11:17:25;;;;;;;28.37;12.23;;;6.60;99.90;;;;;;10450085;28;20446;-79
2022/01/01 11:22:48;;;;;;;35.33;14.30;;;6.60;99.90;;;;;;10478036;28;20191;-81
2022/01/01 11:28:13;;;;;;;28.40;11.03;;;6.50;99.90;;;;;;10463751;28;20218;-83
2022/01/01 11:33:44;;;;;;;21.83;9.57;;;6.50;99.90;;;;;;10435883;28;20299;-82
2022/01/01 11:39:11;;;;;;;15.70;8.17;;;6.60;99.90;;;;;;10422027;28;20381;-82
2022/01/01 11:44:35;;;;;;;21.53;11.50;;;6.50;99.90;;;;;;10436073;28;20654;-82
2022/01/01 11:49:58;;;;;;;32.23;12.97;;;6.50;99.90;;;;;;10440838;28;20410;-83
2022/01/01 11:55:20;;;;;;;26.40;11.10;;;6.50;99.90;;;;;;10451755;28;20429;-83
2022/01/01 12:00:57;;;;;;;18.20;8.23;;;6.50;99.90;;;;;;10435948;28;20246;-83
2022/01/01 12:06:21;;;;;;;23.70;11.90;;;6.40;99.90;;;;;;10421548;28;20220;-82
2022/01/01 12:11:54;;;;;;;32.37;14.90;;;6.50;99.90;;;;;;10435203;28;20200;-82
2022/01/01 12:17:17;;;;;;;28.83;12.73;;;6.50;99.90;;;;;;10426962;28;20283;-82
2022/01/01 12:22:39;;;;;;;30.97;14.20;;;6.40;99.90;;;;;;10436202;28;20216;-82
2022/01/01 12:28:09;;;;;;;29.03;13.93;;;6.40;99.90;;;;;;10470077;28;20632;-82
2022/01/01 12:33:43;;;;;;;26.30;11.67;;;6.40;99.90;;;;;;10483530;28;20211;-82
2022/01/01 12:39:08;;;;;;;25.50;10.23;;;6.40;99.90;;;;;;10469522;28;20225;-82
2022/01/01 12:44:33;;;;;;;36.60;14.03;;;6.30;99.90;;;;;;10469437;28;20215;-83
2022/01/01 12:50:00;;;;;;;24.33;10.67;;;6.30;99.90;;;;;;10468695;28;20246;-83
2022/01/01 12:55:26;;;;;;;29.67;10.93;;;6.30;99.90;;;;;;10437203;28;20420;-82
2022/01/01 13:00:48;;;;;;;36.43;13.67;;;6.30;99.90;;;;;;10427533;28;20215;-82
2022/01/01 13:06:18;;;;;;;32.13;13.47;;;6.20;99.90;;;;;;10427397;28;20231;-82
2022/01/01 13:11:57;;;;;;;26.53;10.40;;;6.20;99.90;;;;;;10442292;28;20188;-81
2022/01/01 13:17:18;;;;;;;23.70;9.97;;;6.20;99.90;;;;;;10413078;28;20779;-83
2022/01/01 13:22:42;;;;;;;25.33;9.33;;;6.20;99.90;;;;;;10423072;28;20195;-82
2022/01/01 13:28:04;;;;;;;27.73;11.73;;;6.20;99.90;;;;;;10481614;28;20232;-82
2022/01/01 13:33:27;;;;;;;31.30;13.17;;;6.20;99.90;;;;;;10467257;28;20213;-82
2022/01/01 13:38:53;;;;;;;30.43;13.67;;;6.30;99.90;;;;;;10467352;28;20203;-82
2022/01/01 13:44:37;;;;;;;27.63;11.57;;;6.30;99.90;;;;;;10467052;28;20277;-82
2022/01/01 13:50:10;;;;;;;29.13;12.50;;;6.30;99.90;;;;;;10446885;28;20588;-80
2022/01/01 13:55:33;;;;;;;32.07;13.17;;;6.20;99.90;;;;;;10460725;28;20547;-80
2022/01/01 14:00:58;;;;;;;43.07;18.50;;;6.20;99.90;;;;;;10480629;28;20202;-81
2022/01/01 14:06:25;;;;;;;44.07;19.10;;;6.20;99.90;;;;;;10466128;28;20232;-80
2022/01/01 14:11:47;;;;;;;63.67;24.77;;;6.20;99.90;;;;;;10466100;28;20199;-81
2022/01/01 14:17:09;;;;;;;37.07;15.37;;;6.10;99.90;;;;;;10465388;28;20251;-81
2022/01/01 14:22:31;;;;;;;22.07;10.67;;;6.10;99.90;;;;;;10465260;28;20556;-80
2022/01/01 14:27:54;;;;;;;36.93;16.03;;;6.00;99.90;;;;;;10465150;28;20234;-81
2022/01/01 14:33:16;;;;;;;49.57;20.07;;;6.00;99.90;;;;;;10440967;28;20200;-82
2022/01/01 14:38:40;;;;;;;46.03;20.43;;;6.00;99.90;;;;;;10423298;28;20290;-82
2022/01/01 14:44:03;;;;;;;43.50;19.23;;;6.00;99.90;;;;;;10423484;28;20240;-82
2022/01/01 14:49:32;;;;;;;53.50;24.07;;;5.90;99.90;;;;;;10438218;28;20235;-81
2022/01/01 14:55:07;;;;;;;54.37;22.33;;;5.90;99.90;;;;;;10464015;28;20236;-83
2022/01/01 15:00:29;;;;;;;57.23;25.03;;;5.90;99.90;;;;;;10464076;28;20498;-83
2022/01/01 15:05:52;;;;;;;80.60;37.83;;;5.90;99.90;;;;;;10464542;28;20276;-79
2022/01/01 15:11:15;;;;;;;80.23;39.63;;;5.90;99.90;;;;;;10463426;28;20250;-80
2022/01/01 15:16:39;;;;;;;63.53;32.03;;;5.80;99.90;;;;;;10463666;28;20366;-79
2022/01/01 15:22:20;;;;;;;48.57;21.67;;;5.90;99.90;;;;;;10463168;28;20278;-82
2022/01/01 15:27:43;;;;;;;40.47;20.17;;;5.90;99.90;;;;;;10476406;28;20408;-79
2022/01/01 15:33:14;;;;;;;40.63;21.60;;;;;;;;;;10477289;28;20199;-79
2022/01/01 15:38:53;;;;;;;35.67;17.43;;;6.00;99.90;;;;;;10464486;28;20269;-81
2022/01/01 15:44:15;;;;;;;32.17;16.07;;;;;;;;;;10462917;28;20242;-80
2022/01/01 15:49:38;;;;;;;41.93;19.07;;;;;;;;;;10478299;28;20301;-81
2022/01/01 15:55:00;;;;;;;35.70;17.53;;;5.80;99.90;;;;;;10470787;28;20220;-83
2022/01/01 16:00:24;;;;;;;29.53;14.50;;;5.90;99.90;;;;;;10471245;28;20257;-82
2022/01/01 16:05:50;;;;;;;26.97;12.40;;;5.90;99.90;;;;;;10470819;28;20226;-80
2022/01/01 16:11:14;;;;;;;19.67;11.23;;;5.80;99.90;;;;;;10484421;28;20205;-81
2022/01/01 16:16:43;;;;;;;19.50;10.03;;;5.90;99.90;;;;;;10470756;28;20213;-81
2022/01/01 16:22:06;;;;;;;23.63;12.67;;;5.80;99.90;;;;;;10470196;28;20202;-82
2022/01/01 16:27:29;;;;;;;24.13;12.40;;;5.80;99.90;;;;;;10442452;28;20274;-80
2022/01/01 16:32:55;;;;;;;29.47;14.87;;;5.70;99.90;;;;;;10442424;28;20513;-80
2022/01/01 16:38:19;;;;;;;32.83;16.77;;;5.70;99.90;;;;;;10414567;28;20203;-81
2022/01/01 16:43:59;;;;;;;33.83;16.13;;;5.60;99.90;;;;;;10442106;28;20197;-82
2022/01/01 16:49:36;;;;;;;36.87;16.97;;;5.60;99.90;;;;;;10442079;28;20269;-82
2022/01/01 16:55:02;;;;;;;39.40;17.90;;;5.50;99.90;;;;;;10468453;28;20190;-82
2022/01/01 17:00:29;;;;;;;45.13;21.97;;;5.50;99.90;;;;;;10454934;28;20196;-82
2022/01/01 17:05:53;;;;;;;47.23;21.37;;;5.50;99.90;;;;;;10474469;28;20239;-82
2022/01/01 17:11:16;;;;;;;98.30;32.03;;;5.50;99.90;;;;;;10468578;28;20217;-82
2022/01/01 17:16:50;;;;;;;104.90;34.60;;;5.40;99.90;;;;;;10468479;28;20198;-82
2022/01/01 17:22:27;;;;;;;85.37;34.20;;;5.50;99.90;;;;;;10484042;28;20201;-80
2022/01/01 17:27:50;;;;;;;72.00;33.17;;;;;;;;;;10467514;28;20241;-80
2022/01/01 17:33:39;;;;;;;49.60;23.03;;;5.50;99.90;;;;;;10469926;28;20202;-80
2022/01/01 17:44:45;;;;;;;37.27;20.47;;;5.50;99.90;;;;;;10466926;28;20489;-82
2022/01/01 17:50:19;;;;;;;47.90;25.03;;;5.50;99.90;;;;;;10480287;28;20237;-79
2022/01/01 17:55:42;;;;;;;36.27;19.90;;;5.50;99.90;;;;;;10466457;28;20197;-79
2022/01/01 18:01:06;;;;;;;44.77;22.73;;;5.50;99.90;;;;;;10480721;28;20218;-82
2022/01/01 18:06:30;;;;;;;40.10;22.07;;;5.50;99.90;;;;;;10466555;28;20524;-81
2022/01/01 18:11:55;;;;;;;62.50;31.47;;;5.50;99.90;;;;;;10465063;28;20206;-81
2022/01/01 18:17:18;;;;;;;52.33;25.80;;;5.50;99.90;;;;;;10466008;28;20205;-82
2022/01/01 18:22:56;;;;;;;48.90;20.83;;;5.50;99.90;;;;;;10465535;28;20504;-82
2022/01/01 18:28:24;;;;;;;52.33;23.97;;;5.50;99.90;;;;;;10479587;28;20233;-82
2022/01/01 18:33:47;;;;;;;44.03;18.17;;;5.50;99.90;;;;;;10481714;28;20203;-82
2022/01/01 18:39:09;;;;;;;31.43;13.83;;;5.50;99.90;;;;;;10465013;28;20526;-83
2022/01/01 18:44:31;;;;;;;21.63;12.33;;;5.40;99.90;;;;;;10465441;28;20365;-82
2022/01/01 18:49:54;;;;;;;23.00;12.57;;;5.30;99.90;;;;;;10445332;28;20238;-83
2022/01/01 18:55:18;;;;;;;13.83;8.70;;;;;;;;;;10463127;28;20253;-83
2022/01/01 19:00:51;;;;;;;13.43;7.97;;;5.10;99.90;;;;;;10478746;28;20213;-82
2022/01/01 19:06:14;;;;;;;13.40;7.27;;;5.00;99.90;;;;;;10464136;28;20594;-82
2022/01/01 19:11:40;;;;;;;13.70;7.13;;;4.90;99.90;;;;;;10464334;28;20197;-82
2022/01/01 19:17:04;;;;;;;16.57;8.87;;;4.80;99.90;;;;;;10463675;28;20227;-82
2022/01/01 19:22:28;;;;;;;27.40;11.33;;;4.80;99.90;;;;;;10477392;28;20226;-82
2022/01/01 19:27:49;;;;;;;18.07;8.17;;;4.80;99.90;;;;;;10436079;28;20222;-82
2022/01/01 19:33:12;;;;;;;10.37;6.23;;;4.90;99.90;;;;;;10435738;28;20198;-82
2022/01/01 19:38:34;;;;;;;12.67;6.77;;;4.80;99.90;;;;;;10422282;28;20213;-83
2022/01/01 19:44:13;;;;;;;12.80;6.40;;;4.80;99.90;;;;;;10423285;28;20206;-82
2022/01/01 19:49:52;;;;;;;12.30;6.70;;;4.80;99.90;;;;;;10437631;28;20258;-83
2022/01/01 19:55:14;;;;;;;16.27;6.80;;;4.80;99.90;;;;;;10473711;28;20226;-82
2022/01/01 20:00:38;;;;;;;20.77;10.17;;;4.70;99.90;;;;;;10462829;28;20195;-82
2022/01/01 20:06:04;;;;;;;30.70;14.33;;;4.70;99.90;;;;;;10462978;28;20280;-81
2022/01/01 20:11:26;;;;;;;23.80;9.47;;;4.60;99.90;;;;;;10476568;28;20218;-82
2022/01/01 20:16:48;;;;;;;15.87;8.67;;;4.60;99.90;;;;;;10448443;28;20202;-81
2022/01/01 20:22:10;;;;;;;17.27;10.20;;;4.60;99.90;;;;;;10448123;28;20198;-81
2022/01/01 20:27:33;;;;;;;19.27;10.47;;;4.60;99.90;;;;;;10448730;28;20296;-80
2022/01/01 20:32:55;;;;;;;11.80;6.30;;;4.60;99.90;;;;;;10462020;28;20212;-82
2022/01/01 20:38:17;;;;;;;11.10;7.10;;;4.60;99.90;;;;;;10481785;28;20201;-82
2022/01/01 20:43:40;;;;;;;13.60;6.97;;;4.50;99.90;;;;;;10469548;28;20528;-82
2022/01/01 20:49:02;;;;;;;11.13;6.63;;;4.40;99.90;;;;;;10482717;28;20240;-81
2022/01/01 20:54:24;;;;;;;15.43;9.57;;;4.30;99.90;;;;;;10483036;28;20295;-80
2022/01/01 20:59:47;;;;;;;11.47;7.13;;;4.40;99.90;;;;;;10469198;28;20201;-80
2022/01/01 21:05:12;;;;;;;13.50;6.77;;;4.20;99.90;;;;;;10468691;28;20203;-80
2022/01/01 21:10:35;;;;;;;8.60;5.47;;;4.30;99.90;;;;;;10468726;28;20244;-81
2022/01/01 21:15:58;;;;;;;10.63;6.00;;;4.30;99.90;;;;;;10468075;28;20197;-80
2022/01/01 21:21:22;;;;;;;13.43;6.77;;;4.20;99.90;;;;;;10467880;28;20260;-82
2022/01/01 21:26:45;;;;;;;8.00;5.40;;;4.30;99.90;;;;;;10468222;28;20228;-80
2022/01/01 21:32:14;;;;;;;12.43;6.50;;;4.30;99.90;;;;;;10467648;28;20531;-82
2022/01/01 21:37:35;;;;;;;38.23;15.77;;;4.30;99.90;;;;;;10467623;28;20513;-83
2022/01/01 21:42:58;;;;;;;18.30;9.63;;;4.30;99.90;;;;;;10467139;28;20248;-82
2022/01/01 21:48:20;;;;;;;13.43;7.37;;;4.30;99.90;;;;;;10466571;28;20241;-80
2022/01/01 21:53:42;;;;;;;14.93;8.20;;;4.20;99.90;;;;;;10480517;28;20502;-82
2022/01/01 21:59:04;;;;;;;14.20;7.13;;;4.20;99.90;;;;;;10466657;28;20423;-83
2022/01/01 22:04:26;;;;;;;13.03;7.60;;;4.20;99.90;;;;;;10467185;28;20201;-82
2022/01/01 22:09:48;;;;;;;17.70;9.03;;;4.20;99.90;;;;;;10466283;28;20235;-82
2022/01/01 22:15:10;;;;;;;15.97;8.10;;;4.30;99.90;;;;;;10465930;28;20237;-82
2022/01/01 22:20:34;;;;;;;17.17;8.10;;;4.30;99.90;;;;;;10451999;28;20204;-82
2022/01/01 22:25:56;;;;;;;14.53;7.43;;;4.20;99.90;;;;;;10465617;28;20224;-82
2022/01/01 22:31:18;;;;;;;12.07;5.90;;;4.20;99.90;;;;;;10480432;28;20208;-82
2022/01/01 22:36:40;;;;;;;12.67;6.53;;;4.20;99.90;;;;;;10465207;28;20200;-82
2022/01/01 22:42:02;;;;;;;12.20;6.90;;;4.20;99.90;;;;;;10464998;28;20201;-82
2022/01/01 22:47:24;;;;;;;8.53;5.23;;;4.30;99.90;;;;;;10464710;28;20224;-82
2022/01/01 22:52:47;;;;;;;12.27;5.47;;;4.20;99.90;;;;;;10435906;28;20526;-82
2022/01/01 22:58:09;;;;;;;12.70;6.13;;;4.20;99.90;;;;;;10478393;28;20196;-80
2022/01/01 23:03:32;;;;;;;11.67;6.43;;;4.20;99.90;;;;;;10464481;28;20204;-80
2022/01/01 23:08:55;;;;;;;8.60;4.80;;;4.20;99.90;;;;;;10463645;28;20228;-80
2022/01/01 23:14:20;;;;;;;9.50;4.73;;;4.30;99.90;;;;;;10464304;28;20264;-80
2022/01/01 23:19:42;;;;;;;6.97;4.40;;;4.20;99.90;;;;;;10449736;28;20228;-80
2022/01/01 23:25:06;;;;;;;9.63;5.63;;;4.30;99.90;;;;;;10449981;28;20205;-80
2022/01/01 23:30:31;;;;;;;9.20;5.30;;;4.30;99.90;;;;;;10476010;28;20190;-79
2022/01/01 23:35:54;;;;;;;8.23;5.87;;;4.30;99.90;;;;;;10422128;28;20219;-80
2022/01/01 23:41:16;;;;;;;9.23;5.60;;;4.30;99.90;;;;;;10422015;28;20454;-82
2022/01/01 23:46:39;;;;;;;8.63;5.47;;;4.30;99.90;;;;;;10422363;28;20456;-82
2022/01/01 23:52:25;;;;;;;7.73;4.83;;;4.30;99.90;;;;;;10442450;28;20563;-82
2022/01/01 23:57:52;;;;;;;7.77;4.67;;;4.30;99.90;;;;;;10463267;28;20199;-82
